sensor_id;sensor_type;location;lat;lon;timestamp;pressure;altitude;pressure_sealevel;temperature;humidity
11643;BME280;5877;50.930;6.918;2023-04-23T00:02:23;100135.59;;;11.54;69.90
11643;BME280;5877;50.930;6.918;2023-04-23T00:07:20;100112.28;;;11.46;70.35
11643;BME280;5877;50.930;6.918;2023-04-23T00:12:12;100251.47;;;12.46;69.92
11643;BME280;5877;50.930;6.918;2023-04-23T00:17:04;99953.56;;;10.48;70.13
11643;BME280;5877;50.930;6.918;2023-04-23T00:21:56;100147.03;;;11.71;70.36
11643;BME280;5877;50.930;6.918;2023-04-23T00:26:48;100043.06;;;10.70;70.69
11643;BME280;5877;50.930;6.918;2023-04-23T00:31:40;100254.97;;;12.11;70.76
11643;BME280;5877;50.930;6.918;2023-04-23T00:36:32;99923.19;;;10.05;70.74
11643;BME280;5877;50.930;6.918;2023-04-23T00:41:24;100193.53;;;11.70;70.27
11643;BME280;5877;50.930;6.918;2023-04-23T00:46:17;99919.84;;;9.98;71.18
11643;BME280;5877;50.930;6.918;2023-04-23T00:51:10;100159.38;;;11.35;71.70
11643;BME280;5877;50.930;6.918;2023-04-23T00:56:03;99876.19;;;9.51;70.84
11643;BME280;5877;50.930;6.918;2023-04-23T01:00:56;100239.75;;;11.78;71.99
11643;BME280;5877;50.930;6.918;2023-04-23T01:05:49;100135.78;;;10.94;73.23
11643;BME280;5877;50.930;6.918;2023-04-23T01:10:44;100246.53;;;11.32;74.39
11643;BME280;5877;50.930;6.918;2023-04-23T01:15:37;100059.88;;;10.09;74.46
11643;BME280;5877;50.930;6.918;2023-04-23T01:20:29;99911.00;;;9.21;74.94
11643;BME280;5877;50.930;6.918;2023-04-23T01:25:21;100009.47;;;9.77;75.99
11643;BME280;5877;50.930;6.918;2023-04-23T01:30:13;100235.38;;;11.07;76.30
11643;BME280;5877;50.930;6.918;2023-04-23T01:35:06;100087.19;;;10.01;76.66
11643;BME280;5877;50.930;6.918;2023-04-23T01:39:58;99873.34;;;8.67;76.92
11643;BME280;5877;50.930;6.918;2023-04-23T01:44:51;100103.06;;;10.06;77.52
11643;BME280;5877;50.930;6.918;2023-04-23T01:49:43;100218.31;;;10.68;78.16
11643;BME280;5877;50.930;6.918;2023-04-23T01:54:35;99959.22;;;9.14;77.79
11643;BME280;5877;50.930;6.918;2023-04-23T01:59:26;100085.47;;;9.77;78.41
11643;BME280;5877;50.930;6.918;2023-04-23T02:04:18;100090.13;;;9.75;78.63
11643;BME280;5877;50.930;6.918;2023-04-23T02:09:10;100240.00;;;10.63;79.15
11643;BME280;5877;50.930;6.918;2023-04-23T02:14:04;100239.09;;;10.69;79.36
11643;BME280;5877;50.930;6.918;2023-04-23T02:18:56;99884.00;;;8.48;80.04
11643;BME280;5877;50.930;6.918;2023-04-23T02:23:47;99829.47;;;8.01;80.05
11643;BME280;5877;50.930;6.918;2023-04-23T02:28:39;100174.53;;;10.20;80.67
11643;BME280;5877;50.930;6.918;2023-04-23T02:33:31;99965.91;;;8.66;81.51
11643;BME280;5877;50.930;6.918;2023-04-23T02:38:23;99744.53;;;7.18;81.55
11643;BME280;5877;50.930;6.918;2023-04-23T02:43:15;100056.09;;;9.14;82.98
11643;BME280;5877;50.930;6.918;2023-04-23T02:48:09;100167.28;;;9.79;83.15
11643;BME280;5877;50.930;6.918;2023-04-23T02:53:01;99946.81;;;8.09;83.04
11643;BME280;5877;50.930;6.918;2023-04-23T02:57:52;100214.13;;;9.94;84.11
11643;BME280;5877;50.930;6.918;2023-04-23T03:02:45;100054.72;;;8.86;83.76
11643;BME280;5877;50.930;6.918;2023-04-23T03:07:37;100220.38;;;9.93;84.33
11643;BME280;5877;50.930;6.918;2023-04-23T03:12:29;100104.47;;;9.29;83.92
11643;BME280;5877;50.930;6.918;2023-04-23T03:17:21;100091.47;;;8.98;84.86
11643;BME280;5877;50.930;6.918;2023-04-23T03:22:13;100140.19;;;9.24;85.42
11643;BME280;5877;50.930;6.918;2023-04-23T03:27:06;99911.47;;;7.75;85.82
11643;BME280;5877;50.930;6.918;2023-04-23T03:31:58;100132.81;;;9.14;86.23
11643;BME280;5877;50.930;6.918;2023-04-23T03:36:49;100135.44;;;9.14;86.37
11643;BME280;5877;50.930;6.918;2023-04-23T03:41:41;100066.72;;;8.94;86.45
11643;BME280;5877;50.930;6.918;2023-04-23T03:46:35;100186.81;;;9.83;86.48
11643;BME280;5877;50.930;6.918;2023-04-23T03:51:27;100197.38;;;9.95;86.46
11643;BME280;5877;50.930;6.918;2023-04-23T03:56:19;100029.97;;;9.07;86.33
11643;BME280;5877;50.930;6.918;2023-04-23T04:01:30;100109.34;;;9.69;85.78
11643;BME280;5877;50.930;6.918;2023-04-23T04:06:23;100125.56;;;9.96;85.38
11643;BME280;5877;50.930;6.918;2023-04-23T04:11:15;100095.22;;;9.88;84.89
11643;BME280;5877;50.930;6.918;2023-04-23T04:16:07;100084.94;;;9.87;85.08
11643;BME280;5877;50.930;6.918;2023-04-23T04:20:59;100136.72;;;10.28;84.60
11643;BME280;5877;50.930;6.918;2023-04-23T04:25:51;99739.00;;;7.82;84.23
11643;BME280;5877;50.930;6.918;2023-04-23T04:30:46;100068.78;;;9.90;84.09
11643;BME280;5877;50.930;6.918;2023-04-23T04:35:41;100041.28;;;9.81;83.78
11643;BME280;5877;50.930;6.918;2023-04-23T04:40:33;100101.97;;;10.32;83.55
11643;BME280;5877;50.930;6.918;2023-04-23T04:45:25;100174.63;;;10.73;83.09
11643;BME280;5877;50.930;6.918;2023-04-23T04:50:17;99859.97;;;8.75;83.42
11643;BME280;5877;50.930;6.918;2023-04-23T04:55:09;100153.28;;;10.70;82.87
11643;BME280;5877;50.930;6.918;2023-04-23T05:00:05;100126.34;;;10.63;82.04
11643;BME280;5877;50.930;6.918;2023-04-23T05:05:09;100053.72;;;10.33;81.75
11643;BME280;5877;50.930;6.918;2023-04-23T05:10:01;100061.81;;;10.32;81.05
11643;BME280;5877;50.930;6.918;2023-04-23T05:14:53;99858.63;;;9.21;81.01
11643;BME280;5877;50.930;6.918;2023-04-23T05:19:45;99910.22;;;9.51;80.32
11643;BME280;5877;50.930;6.918;2023-04-23T05:24:37;100105.50;;;10.80;80.28
11643;BME280;5877;50.930;6.918;2023-04-23T05:29:29;100198.47;;;11.67;79.82
11643;BME280;5877;50.930;6.918;2023-04-23T05:34:21;100011.91;;;10.73;79.21
11643;BME280;5877;50.930;6.918;2023-04-23T05:39:13;99916.28;;;10.23;77.96
11643;BME280;5877;50.930;6.918;2023-04-23T05:44:04;99876.25;;;10.27;77.13
11643;BME280;5877;50.930;6.918;2023-04-23T05:48:56;99956.31;;;10.88;75.84
11643;BME280;5877;50.930;6.918;2023-04-23T05:53:48;99946.50;;;10.95;74.96
11643;BME280;5877;50.930;6.918;2023-04-23T05:58:40;99831.78;;;10.32;74.47
11643;BME280;5877;50.930;6.918;2023-04-23T06:03:32;100004.66;;;11.51;73.79
11643;BME280;5877;50.930;6.918;2023-04-23T06:08:24;99980.63;;;11.59;72.76
11643;BME280;5877;50.930;6.918;2023-04-23T06:13:16;99998.72;;;11.95;71.48
11643;BME280;5877;50.930;6.918;2023-04-23T06:18:08;100157.56;;;13.25;70.51
11643;BME280;5877;50.930;6.918;2023-04-23T06:23:00;100108.00;;;13.10;69.55
11643;BME280;5877;50.930;6.918;2023-04-23T06:27:53;100042.91;;;12.89;68.97
11643;BME280;5877;50.930;6.918;2023-04-23T06:32:48;100130.44;;;13.63;68.81
11643;BME280;5877;50.930;6.918;2023-04-23T06:37:40;100097.31;;;13.94;67.30
11643;BME280;5877;50.930;6.918;2023-04-23T06:42:32;99966.03;;;13.52;64.73
11643;BME280;5877;50.930;6.918;2023-04-23T06:47:46;100190.56;;;14.92;64.65
11643;BME280;5877;50.930;6.918;2023-04-23T06:52:40;100190.38;;;15.04;64.39
11643;BME280;5877;50.930;6.918;2023-04-23T06:57:32;100172.38;;;15.33;64.28
11643;BME280;5877;50.930;6.918;2023-04-23T07:02:24;100117.78;;;16.16;61.12
11643;BME280;5877;50.930;6.918;2023-04-23T07:07:16;99894.81;;;16.44;55.11
11643;BME280;5877;50.930;6.918;2023-04-23T07:12:08;99976.28;;;17.29;53.52
11643;BME280;5877;50.930;6.918;2023-04-23T07:17:00;100019.47;;;18.04;52.49
11643;BME280;5877;50.930;6.918;2023-04-23T07:21:52;99932.88;;;19.56;46.63
11643;BME280;5877;50.930;6.918;2023-04-23T07:26:44;100141.38;;;20.93;46.61
11643;BME280;5877;50.930;6.918;2023-04-23T07:31:38;99959.06;;;20.98;43.07
11643;BME280;5877;50.930;6.918;2023-04-23T07:36:32;100024.81;;;23.58;38.10
11643;BME280;5877;50.930;6.918;2023-04-23T07:41:24;100081.38;;;20.77;44.50
11643;BME280;5877;50.930;6.918;2023-04-23T07:46:15;100074.16;;;19.65;47.72
11643;BME280;5877;50.930;6.918;2023-04-23T07:51:08;100022.97;;;24.02;37.83
11643;BME280;5877;50.930;6.918;2023-04-23T07:55:59;99903.25;;;25.71;33.34
11643;BME280;5877;50.930;6.918;2023-04-23T08:00:51;99926.38;;;27.11;30.72
11643;BME280;5877;50.930;6.918;2023-04-23T08:05:43;100100.56;;;24.07;36.60
11643;BME280;5877;50.930;6.918;2023-04-23T08:10:37;99790.53;;;21.85;37.49
11643;BME280;5877;50.930;6.918;2023-04-23T08:15:29;100013.66;;;21.47;40.80
11643;BME280;5877;50.930;6.918;2023-04-23T08:20:20;100053.88;;;20.63;42.87
11643;BME280;5877;50.930;6.918;2023-04-23T08:25:12;99996.94;;;19.41;44.71
11643;BME280;5877;50.930;6.918;2023-04-23T08:30:06;100107.38;;;19.91;45.17
11643;BME280;5877;50.930;6.918;2023-04-23T08:34:59;100122.13;;;19.84;45.66
11643;BME280;5877;50.930;6.918;2023-04-23T08:39:51;100116.28;;;19.82;46.26
11643;BME280;5877;50.930;6.918;2023-04-23T08:44:45;100005.88;;;19.50;46.11
11643;BME280;5877;50.930;6.918;2023-04-23T08:49:40;99855.50;;;20.31;42.06
11643;BME280;5877;50.930;6.918;2023-04-23T08:54:34;100043.38;;;22.53;39.47
11643;BME280;5877;50.930;6.918;2023-04-23T08:59:29;99957.75;;;21.64;40.93
11643;BME280;5877;50.930;6.918;2023-04-23T09:04:22;100007.50;;;23.16;37.05
11643;BME280;5877;50.930;6.918;2023-04-23T09:09:15;99872.88;;;21.25;38.60
11643;BME280;5877;50.930;6.918;2023-04-23T09:14:11;99833.63;;;21.25;37.56
11643;BME280;5877;50.930;6.918;2023-04-23T09:19:04;99824.34;;;23.35;34.56
11643;BME280;5877;50.930;6.918;2023-04-23T09:23:56;100075.00;;;24.01;34.87
11643;BME280;5877;50.930;6.918;2023-04-23T09:28:50;100009.53;;;21.90;38.61
11643;BME280;5877;50.930;6.918;2023-04-23T09:33:49;99893.16;;;20.98;38.43
11643;BME280;5877;50.930;6.918;2023-04-23T09:38:41;99979.69;;;21.97;37.62
11643;BME280;5877;50.930;6.918;2023-04-23T09:43:33;99665.06;;;19.41;38.37
11643;BME280;5877;50.930;6.918;2023-04-23T09:48:39;99834.22;;;20.72;38.51
11643;BME280;5877;50.930;6.918;2023-04-23T09:53:39;99759.53;;;21.08;37.90
11643;BME280;5877;50.930;6.918;2023-04-23T09:58:32;99895.28;;;21.96;36.49
11643;BME280;5877;50.930;6.918;2023-04-23T10:03:27;99840.59;;;21.71;36.46
11643;BME280;5877;50.930;6.918;2023-04-23T10:08:20;100025.56;;;22.49;36.23
11643;BME280;5877;50.930;6.918;2023-04-23T10:13:12;99869.16;;;21.48;36.12
11643;BME280;5877;50.930;6.918;2023-04-23T10:18:06;99776.50;;;21.49;34.99
11643;BME280;5877;50.930;6.918;2023-04-23T10:22:59;99913.84;;;21.56;35.76
11643;BME280;5877;50.930;6.918;2023-04-23T10:27:54;100039.34;;;22.20;35.51
11643;BME280;5877;50.930;6.918;2023-04-23T10:32:47;99803.16;;;20.90;36.04
11643;BME280;5877;50.930;6.918;2023-04-23T10:37:40;100027.84;;;21.83;36.20
11643;BME280;5877;50.930;6.918;2023-04-23T10:42:32;99947.13;;;21.36;35.26
11643;BME280;5877;50.930;6.918;2023-04-23T10:47:24;99663.38;;;19.45;36.02
11643;BME280;5877;50.930;6.918;2023-04-23T10:52:17;100007.00;;;21.58;36.49
11643;BME280;5877;50.930;6.918;2023-04-23T10:57:14;99669.47;;;19.65;35.07
11643;BME280;5877;50.930;6.918;2023-04-23T11:02:12;99928.84;;;21.30;34.93
11643;BME280;5877;50.930;6.918;2023-04-23T11:07:09;99801.88;;;20.88;34.07
11643;BME280;5877;50.930;6.918;2023-04-23T11:12:02;99766.50;;;20.82;33.86
11643;BME280;5877;50.930;6.918;2023-04-23T11:16:57;99801.31;;;21.13;34.14
11643;BME280;5877;50.930;6.918;2023-04-23T11:26:51;99720.97;;;20.29;33.99
11643;BME280;5877;50.930;6.918;2023-04-23T11:31:47;99883.50;;;21.52;34.43
11643;BME280;5877;50.930;6.918;2023-04-23T11:36:53;99957.91;;;22.48;33.40
11643;BME280;5877;50.930;6.918;2023-04-23T11:41:45;99931.09;;;22.09;33.84
11643;BME280;5877;50.930;6.918;2023-04-23T11:46:37;99661.38;;;19.97;34.63
11643;BME280;5877;50.930;6.918;2023-04-23T11:51:29;99936.47;;;22.40;34.18
11643;BME280;5877;50.930;6.918;2023-04-23T11:56:21;99889.72;;;22.37;33.41
11643;BME280;5877;50.930;6.918;2023-04-23T12:01:14;99824.31;;;21.36;33.92
11643;BME280;5877;50.930;6.918;2023-04-23T12:06:06;99856.59;;;21.71;34.02
11643;BME280;5877;50.930;6.918;2023-04-23T12:11:00;99681.84;;;21.10;33.49
11643;BME280;5877;50.930;6.918;2023-04-23T12:15:57;99660.78;;;20.14;32.41
11643;BME280;5877;50.930;6.918;2023-04-23T12:20:50;99854.22;;;20.97;34.42
11643;BME280;5877;50.930;6.918;2023-04-23T12:25:41;99655.06;;;19.93;33.85
11643;BME280;5877;50.930;6.918;2023-04-23T12:30:41;99665.69;;;19.52;35.08
11643;BME280;5877;50.930;6.918;2023-04-23T12:35:49;99531.75;;;18.97;33.38
11643;BME280;5877;50.930;6.918;2023-04-23T12:40:42;99850.81;;;20.42;34.95
11643;BME280;5877;50.930;6.918;2023-04-23T12:45:37;99754.63;;;20.11;34.48
11643;BME280;5877;50.930;6.918;2023-04-23T12:50:29;99642.59;;;19.48;34.50
11643;BME280;5877;50.930;6.918;2023-04-23T12:55:20;99831.84;;;20.71;34.74
11643;BME280;5877;50.930;6.918;2023-04-23T13:00:13;99620.47;;;20.43;32.93
11643;BME280;5877;50.930;6.918;2023-04-23T13:05:05;99732.81;;;20.86;32.37
11643;BME280;5877;50.930;6.918;2023-04-23T13:09:57;99542.66;;;19.55;32.45
11643;BME280;5877;50.930;6.918;2023-04-23T13:14:50;99669.25;;;20.44;32.44
11643;BME280;5877;50.930;6.918;2023-04-23T13:19:42;99646.91;;;20.98;32.19
11643;BME280;5877;50.930;6.918;2023-04-23T13:24:35;99715.84;;;21.04;32.19
11643;BME280;5877;50.930;6.918;2023-04-23T13:29:27;99733.06;;;20.98;32.18
11643;BME280;5877;50.930;6.918;2023-04-23T13:34:19;99648.44;;;20.68;32.09
11643;BME280;5877;50.930;6.918;2023-04-23T13:39:12;99745.00;;;21.37;32.16
11643;BME280;5877;50.930;6.918;2023-04-23T13:44:05;99732.41;;;21.15;32.29
11643;BME280;5877;50.930;6.918;2023-04-23T13:48:57;99456.81;;;19.08;33.55
11643;BME280;5877;50.930;6.918;2023-04-23T13:53:50;99709.66;;;20.73;34.15
11643;BME280;5877;50.930;6.918;2023-04-23T13:58:42;99559.09;;;18.84;37.18
11643;BME280;5877;50.930;6.918;2023-04-23T14:03:36;99404.63;;;17.93;36.37
11643;BME280;5877;50.930;6.918;2023-04-23T14:08:28;99598.47;;;19.14;35.58
11643;BME280;5877;50.930;6.918;2023-04-23T14:13:21;99729.66;;;20.34;35.64
11643;BME280;5877;50.930;6.918;2023-04-23T14:18:13;99624.19;;;19.65;35.66
11643;BME280;5877;50.930;6.918;2023-04-23T14:28:39;99462.34;;;18.20;37.58
11643;BME280;5877;50.930;6.918;2023-04-23T14:33:31;99522.03;;;18.22;39.33
11643;BME280;5877;50.930;6.918;2023-04-23T14:38:23;99420.31;;;17.09;40.08
11643;BME280;5877;50.930;6.918;2023-04-23T14:43:17;99323.44;;;16.50;40.18
11643;BME280;5877;50.930;6.918;2023-04-23T14:48:09;99535.56;;;18.07;40.51
11643;BME280;5877;50.930;6.918;2023-04-23T14:53:01;99515.75;;;17.99;40.23
11643;BME280;5877;50.930;6.918;2023-04-23T14:57:57;99377.00;;;16.95;40.32
11643;BME280;5877;50.930;6.918;2023-04-23T15:02:49;99611.72;;;18.68;40.05
11643;BME280;5877;50.930;6.918;2023-04-23T15:07:41;99362.47;;;16.68;42.07
11643;BME280;5877;50.930;6.918;2023-04-23T15:12:53;99646.63;;;18.42;45.49
11643;BME280;5877;50.930;6.918;2023-04-23T15:17:48;99331.66;;;15.96;50.25
11643;BME280;5877;50.930;6.918;2023-04-23T15:22:40;99303.59;;;15.66;48.00
11643;BME280;5877;50.930;6.918;2023-04-23T15:27:32;99451.78;;;16.92;47.97
11643;BME280;5877;50.930;6.918;2023-04-23T15:32:23;99563.47;;;17.38;47.61
11643;BME280;5877;50.930;6.918;2023-04-23T15:37:15;99380.91;;;15.91;52.84
11643;BME280;5877;50.930;6.918;2023-04-23T15:42:09;99407.09;;;15.49;53.40
11643;BME280;5877;50.930;6.918;2023-04-23T15:47:01;99344.59;;;15.24;54.32
11643;BME280;5877;50.930;6.918;2023-04-23T15:51:53;99401.09;;;15.33;55.51
11643;BME280;5877;50.930;6.918;2023-04-23T15:56:46;99304.06;;;14.89;55.32
11643;BME280;5877;50.930;6.918;2023-04-23T16:01:37;99217.63;;;14.41;55.88
11643;BME280;5877;50.930;6.918;2023-04-23T16:06:29;99677.06;;;16.97;57.71
11643;BME280;5877;50.930;6.918;2023-04-23T16:11:22;99348.88;;;14.05;60.49
11643;BME280;5877;50.930;6.918;2023-04-23T16:16:18;99400.53;;;13.60;65.95
11643;BME280;5877;50.930;6.918;2023-04-23T16:21:11;99427.31;;;12.69;68.54
11643;BME280;5877;50.930;6.918;2023-04-23T16:26:03;99466.72;;;12.27;72.02
11643;BME280;5877;50.930;6.918;2023-04-23T16:30:59;99400.19;;;11.94;74.86
11643;BME280;5877;50.930;6.918;2023-04-23T16:35:51;99527.41;;;12.79;74.87
11643;BME280;5877;50.930;6.918;2023-04-23T16:40:43;99385.19;;;11.95;75.21
11643;BME280;5877;50.930;6.918;2023-04-23T16:45:37;99312.59;;;11.35;76.21
11643;BME280;5877;50.930;6.918;2023-04-23T16:50:31;99324.69;;;11.63;76.05
11643;BME280;5877;50.930;6.918;2023-04-23T16:55:24;99345.91;;;11.56;77.64
11643;BME280;5877;50.930;6.918;2023-04-23T17:00:16;99517.69;;;12.80;76.71
11643;BME280;5877;50.930;6.918;2023-04-23T17:05:08;99179.94;;;10.73;76.35
11643;BME280;5877;50.930;6.918;2023-04-23T17:10:01;99324.13;;;11.88;76.08
11643;BME280;5877;50.930;6.918;2023-04-23T17:14:53;99262.38;;;11.58;74.68
11643;BME280;5877;50.930;6.918;2023-04-23T17:19:45;99316.34;;;12.03;73.71
11643;BME280;5877;50.930;6.918;2023-04-23T17:24:36;99489.03;;;12.88;73.02
11643;BME280;5877;50.930;6.918;2023-04-23T17:29:29;99575.28;;;13.50;72.58
11643;BME280;5877;50.930;6.918;2023-04-23T17:34:21;99164.03;;;10.85;71.88
11643;BME280;5877;50.930;6.918;2023-04-23T17:39:13;99330.28;;;12.03;72.38
11643;BME280;5877;50.930;6.918;2023-04-23T17:44:10;99355.09;;;12.13;72.38
11643;BME280;5877;50.930;6.918;2023-04-23T17:49:02;99443.34;;;12.67;72.47
11643;BME280;5877;50.930;6.918;2023-04-23T17:53:54;99446.53;;;12.70;72.24
11643;BME280;5877;50.930;6.918;2023-04-23T17:58:46;99201.19;;;11.31;72.32
11643;BME280;5877;50.930;6.918;2023-04-23T18:03:37;99444.50;;;12.82;71.37
11643;BME280;5877;50.930;6.918;2023-04-23T18:08:30;99197.28;;;11.33;70.67
11643;BME280;5877;50.930;6.918;2023-04-23T18:13:22;99430.53;;;12.81;70.57
11643;BME280;5877;50.930;6.918;2023-04-23T18:18:15;99195.50;;;11.44;70.39
11643;BME280;5877;50.930;6.918;2023-04-23T18:23:07;99334.28;;;12.11;70.35
11643;BME280;5877;50.930;6.918;2023-04-23T18:28:00;99339.47;;;12.38;69.60
11643;BME280;5877;50.930;6.918;2023-04-23T18:33:05;99369.81;;;12.51;69.57
11643;BME280;5877;50.930;6.918;2023-04-23T18:38:04;99515.19;;;13.52;70.26
11643;BME280;5877;50.930;6.918;2023-04-23T18:42:58;99174.13;;;11.30;69.48
11643;BME280;5877;50.930;6.918;2023-04-23T18:47:54;99282.72;;;12.05;69.13
11643;BME280;5877;50.930;6.918;2023-04-23T18:52:47;99223.28;;;11.67;69.17
11643;BME280;5877;50.930;6.918;2023-04-23T18:57:39;99326.72;;;12.20;70.53
11643;BME280;5877;50.930;6.918;2023-04-23T19:02:30;99379.25;;;12.47;70.67
11643;BME280;5877;50.930;6.918;2023-04-23T19:07:26;99476.75;;;13.09;71.09
11643;BME280;5877;50.930;6.918;2023-04-23T19:12:18;99472.25;;;12.99;71.00
11643;BME280;5877;50.930;6.918;2023-04-23T19:17:10;99439.72;;;12.74;71.32
11643;BME280;5877;50.930;6.918;2023-04-23T19:22:02;99342.25;;;12.21;71.05
11643;BME280;5877;50.930;6.918;2023-04-23T19:26:54;99572.41;;;13.52;70.25
11643;BME280;5877;50.930;6.918;2023-04-23T19:31:46;99461.13;;;12.87;69.82
11643;BME280;5877;50.930;6.918;2023-04-23T19:36:40;99295.19;;;11.56;69.18
11643;BME280;5877;50.930;6.918;2023-04-23T19:41:32;99461.41;;;12.54;69.60
11643;BME280;5877;50.930;6.918;2023-04-23T19:46:27;99576.47;;;13.27;68.37
11643;BME280;5877;50.930;6.918;2023-04-23T19:51:19;99426.56;;;12.05;68.12
11643;BME280;5877;50.930;6.918;2023-04-23T19:56:13;99582.75;;;12.84;67.94
11643;BME280;5877;50.930;6.918;2023-04-23T20:01:05;99301.19;;;10.97;68.09
11643;BME280;5877;50.930;6.918;2023-04-23T20:05:58;99392.41;;;11.56;67.41
11643;BME280;5877;50.930;6.918;2023-04-23T20:10:51;99511.56;;;12.37;67.42
11643;BME280;5877;50.930;6.918;2023-04-23T20:15:43;99252.31;;;10.69;66.19
11643;BME280;5877;50.930;6.918;2023-04-23T20:20:35;99395.50;;;11.48;65.29
11643;BME280;5877;50.930;6.918;2023-04-23T20:25:28;99525.66;;;12.26;65.36
11643;BME280;5877;50.930;6.918;2023-04-23T20:30:19;99289.06;;;10.69;64.59
11643;BME280;5877;50.930;6.918;2023-04-23T20:35:11;99408.44;;;11.54;64.00
11643;BME280;5877;50.930;6.918;2023-04-23T20:40:04;99371.75;;;11.16;62.95
11643;BME280;5877;50.930;6.918;2023-04-23T20:44:56;99375.97;;;11.17;61.54
11643;BME280;5877;50.930;6.918;2023-04-23T20:49:48;99520.09;;;12.22;60.42
11643;BME280;5877;50.930;6.918;2023-04-23T20:54:40;99234.66;;;10.38;59.52
